Arapahoe, Wyoming
Current Conditions -  °F | °C
As of 9:53 PM on Sunday 21 Dec 2014 (Local Time) from KRIW Reporting Station
Clear Clear  
Wind Chill: 21°   Ceiling: Unl
Heat Index: 34°   Visibility: 10mi
Dew Point: 20°   Wind: 29mph
Humidity: 56%   Direction: 310°NW
Pressure: 29.71"   Gusts: 39mph
Location:  42.96°N, 108.49°W
Report Text: KRIW 220453Z AUTO 31025G34KT 10SM CLR 01/M07 A2971 RMK AO2 PK WND 31034/0450 SLP072 T00111067
Loading
Personal Weather Stations






























Interactive Weather Map New forecast layout! Learn more

10-Day Weather Forecast

Advertisements
Track Severe Weather on mobile